Time;durP1;ratioP1;P1;durP2;ratioP2;P2;SDS_P1;SDS_P2;PMS_P1;PMS_P2;Temp;Humidity;BMP_temperature;BMP_pressure;BME280_temperature;BME280_humidity;BME280_pressure;Samples;Min_cycle;Max_cycle;Signal;HPM_P1;HPM_P2
2023/12/25 00:01:12;;;;;;;0.50;0.50;;;;;;;5.34;86.81;96646.19;5000663;28;20097;-66
2023/12/25 00:03:38;;;;;;;0.50;0.50;;;;;;;5.18;86.66;96653.53;5000679;28;20093;-67
2023/12/25 00:06:17;;;;;;;0.50;0.50;;;;;;;5.71;87.26;96738.34;4983916;28;20064;-68
2023/12/25 00:08:44;;;;;;;0.50;0.50;;;;;;;5.57;86.11;96688.47;5000689;28;20065;-67
2023/12/25 00:11:11;;;;;;;0.50;0.50;;;;;;;5.72;86.22;96739.97;4985156;28;20097;-67
2023/12/25 00:13:38;;;;;;;0.50;0.50;;;;;;;5.71;86.32;96727.34;4985792;28;20145;-68
2023/12/25 00:16:05;;;;;;;0.50;0.50;;;;;;;5.91;86.16;96745.69;4985493;28;20054;-68
2023/12/25 00:18:31;;;;;;;0.40;0.40;;;;;;;5.68;86.40;96742.59;4985484;28;20054;-68
2023/12/25 00:20:58;;;;;;;0.50;0.50;;;;;;;5.76;86.40;96741.66;4985440;28;20654;-67
2023/12/25 00:23:26;;;;;;;0.50;0.50;;;;;;;5.86;86.36;96737.66;4985806;28;20537;-66
2023/12/25 00:25:53;;;;;;;0.50;0.50;;;;;;;5.85;86.26;96736.03;5000217;28;20054;-67
2023/12/25 00:28:20;;;;;;;0.50;0.50;;;;;;;5.37;86.21;96657.28;4999958;28;20069;-68
2023/12/25 00:30:47;;;;;;;0.50;0.50;;;;;;;6.03;85.99;96735.44;4985945;28;20054;-66
2023/12/25 00:33:14;;;;;;;0.50;0.50;;;;;;;5.33;87.24;96647.31;4985708;28;20058;-67
2023/12/25 00:35:41;;;;;;;0.50;0.50;;;;;;;5.82;86.77;96709.25;4985815;28;20408;-67
2023/12/25 00:38:08;;;;;;;0.50;0.50;;;;;;;5.48;86.67;96654.84;4999798;28;20082;-68
2023/12/25 00:40:34;;;;;;;0.50;0.50;;;;;;;6.05;85.77;96724.09;4983764;28;20050;-67
2023/12/25 00:43:05;;;;;;;0.50;0.50;;;;;;;5.98;85.84;96726.63;4985114;28;20049;-67
2023/12/25 00:45:31;;;;;;;0.50;0.50;;;;;;;5.89;85.88;96720.47;4985000;28;20718;-67
2023/12/25 00:47:58;;;;;;;0.50;0.50;;;;;;;5.53;85.44;96638.91;4999799;28;20800;-67
2023/12/25 00:50:25;;;;;;;0.50;0.50;;;;;;;6.07;85.66;96719.03;4985391;28;20050;-68
2023/12/25 00:52:52;;;;;;;0.50;0.50;;;;;;;6.03;85.30;96729.94;4999517;28;20054;-67
2023/12/25 00:55:19;;;;;;;0.50;0.50;;;;;;;5.17;86.30;96599.78;4983543;28;20463;-68
2023/12/25 00:57:46;;;;;;;0.50;0.50;;;;;;;5.45;87.03;96663.78;4984882;28;20057;-66
2023/12/25 01:00:13;;;;;;;0.52;0.52;;;;;;;5.72;87.20;96731.72;4985126;28;20547;-67
2023/12/25 01:02:40;;;;;;;0.50;0.50;;;;;;;4.66;87.40;96626.78;4984363;28;20476;-65
2023/12/25 01:05:09;;;;;;;0.50;0.50;;;;;;;5.41;87.38;96717.78;4985334;28;20054;-66
2023/12/25 01:07:36;;;;;;;0.50;0.50;;;;;;;4.46;88.83;96600.25;4984214;28;20152;-66
2023/12/25 01:10:02;;;;;;;0.50;0.50;;;;;;;4.62;89.06;96614.91;4984914;28;20049;-67
2023/12/25 01:12:30;;;;;;;0.45;0.45;;;;;;;5.36;89.78;96704.31;4999800;28;20058;-67
2023/12/25 01:14:56;;;;;;;0.50;0.50;;;;;;;4.91;89.59;96629.53;4985170;28;20092;-68
2023/12/25 01:17:24;;;;;;;0.50;0.50;;;;;;;5.44;91.12;96709.66;4984604;28;20109;-67
2023/12/25 01:19:51;;;;;;;0.50;0.50;;;;;;;5.22;88.54;96710.13;4985273;28;20046;-67
2023/12/25 01:22:18;;;;;;;0.40;0.40;;;;;;;5.13;89.87;96717.69;4984875;28;20054;-67
2023/12/25 01:24:45;;;;;;;0.50;0.50;;;;;;;5.31;88.93;96710.03;4983442;28;20054;-66
2023/12/25 01:27:12;;;;;;;0.50;0.50;;;;;;;5.04;91.01;96706.03;4984245;28;20054;-68
2023/12/25 01:29:38;;;;;;;0.40;0.40;;;;;;;5.08;89.87;96686.91;4985009;28;20974;-67
2023/12/25 01:32:05;;;;;;;0.40;0.40;;;;;;;5.08;90.28;96675.94;4999011;28;20082;-67
2023/12/25 01:34:32;;;;;;;0.50;0.50;;;;;;;5.13;90.62;96687.50;4984734;28;20129;-66
2023/12/25 01:37:00;;;;;;;0.50;0.50;;;;;;;4.76;91.58;96646.69;4983999;28;20057;-66
2023/12/25 01:39:27;;;;;;;0.50;0.50;;;;;;;5.16;90.29;96675.81;4984616;28;20050;-67
2023/12/25 01:41:54;;;;;;;0.50;0.50;;;;;;;4.95;89.86;96661.41;4998831;28;20047;-67
2023/12/25 01:44:21;;;;;;;0.40;0.40;;;;;;;4.80;89.04;96681.31;4984903;28;20061;-66
2023/12/25 01:46:53;;;;;;;0.40;0.40;;;;;;;4.66;91.16;96678.91;4984336;28;20050;-67
2023/12/25 01:49:20;;;;;;;0.40;0.40;;;;;;;4.66;91.62;96689.88;4999483;28;20059;-67
2023/12/25 01:51:50;;;;;;;0.50;0.50;;;;;;;4.81;91.33;96679.34;4984114;28;20100;-66
2023/12/25 01:54:17;;;;;;;0.40;0.40;;;;;;;4.64;91.11;96656.50;4984393;28;20057;-67
2023/12/25 01:56:44;;;;;;;0.47;0.47;;;;;;;4.43;90.91;96633.84;4984442;28;20584;-67
2023/12/25 01:59:11;;;;;;;0.50;0.50;;;;;;;4.35;89.32;96662.16;4999226;28;20066;-67
2023/12/25 02:01:38;;;;;;;0.40;0.40;;;;;;;4.07;89.42;96619.28;4984178;28;20042;-67
2023/12/25 02:04:05;;;;;;;0.40;0.40;;;;;;;4.22;89.52;96637.81;4999188;28;20089;-68
2023/12/25 02:06:34;;;;;;;0.40;0.40;;;;;;;4.60;89.10;96693.97;4984070;28;20149;-68
2023/12/25 02:09:03;;;;;;;0.50;0.50;;;;;;;4.59;89.30;96697.88;4999068;28;20062;-67
2023/12/25 02:11:29;;;;;;;0.50;0.50;;;;;;;4.66;89.45;96681.63;4982984;28;20050;-67
2023/12/25 02:13:57;;;;;;;0.40;0.40;;;;;;;4.73;89.27;96680.28;4998997;28;20759;-67
2023/12/25 02:16:24;;;;;;;0.50;0.50;;;;;;;4.74;89.08;96685.44;4998813;28;20057;-67
2023/12/25 02:18:52;;;;;;;0.40;0.40;;;;;;;4.83;89.10;96685.31;4998928;28;20069;-66
2023/12/25 02:21:20;;;;;;;0.50;0.50;;;;;;;4.25;89.37;96605.03;4984047;28;20058;-68
2023/12/25 02:23:50;;;;;;;0.40;0.40;;;;;;;4.21;89.47;96609.59;4984365;28;20532;-68
2023/12/25 02:26:17;;;;;;;0.40;0.40;;;;;;;4.40;89.54;96612.59;4984185;28;20054;-68
2023/12/25 02:28:44;;;;;;;0.40;0.40;;;;;;;4.86;90.36;96690.13;4987147;28;20138;-67
2023/12/25 02:31:11;;;;;;;0.40;0.40;;;;;;;4.65;90.68;96674.56;4987464;28;20061;-67
2023/12/25 02:33:37;;;;;;;0.50;0.50;;;;;;;4.89;89.92;96701.22;4987720;28;20508;-68
2023/12/25 02:36:05;;;;;;;0.40;0.40;;;;;;;4.79;89.88;96673.44;4988005;28;20623;-68
2023/12/25 02:38:31;;;;;;;0.40;0.40;;;;;;;4.94;88.82;96697.44;4986397;28;20056;-67
2023/12/25 02:40:58;;;;;;;0.40;0.40;;;;;;;4.02;88.95;96557.28;4987894;28;20054;-67
2023/12/25 02:43:25;;;;;;;0.50;0.50;;;;;;;4.83;89.78;96696.28;4987467;28;20132;-67
2023/12/25 02:45:52;;;;;;;0.40;0.40;;;;;;;4.81;89.95;96695.81;4987631;28;20085;-68
2023/12/25 02:48:19;;;;;;;0.40;0.40;;;;;;;4.47;90.23;96636.72;4987317;28;20141;-68
2023/12/25 02:50:46;;;;;;;0.40;0.40;;;;;;;4.91;90.01;96681.66;4987767;28;20042;-68
2023/12/25 02:53:13;;;;;;;0.50;0.50;;;;;;;4.88;90.55;96676.84;5002367;28;20090;-68
2023/12/25 02:55:40;;;;;;;0.40;0.40;;;;;;;4.81;91.13;96676.63;4987684;28;20061;-68
2023/12/25 02:58:06;;;;;;;0.50;0.50;;;;;;;4.86;91.66;96663.50;4987248;28;20077;-68
2023/12/25 03:00:33;;;;;;;0.50;0.50;;;;;;;4.82;92.20;96664.53;4987170;28;20050;-67
2023/12/25 03:03:00;;;;;;;0.40;0.40;;;;;;;4.75;94.32;96656.03;4986939;28;20460;-67
2023/12/25 03:05:27;;;;;;;0.40;0.40;;;;;;;4.86;94.10;96646.22;4987134;28;20058;-67
2023/12/25 03:07:54;;;;;;;0.50;0.50;;;;;;;4.93;93.89;96646.44;4986490;28;20464;-66
2023/12/25 03:10:21;;;;;;;0.45;0.45;;;;;;;4.99;92.96;96645.06;4986893;28;20500;-66
2023/12/25 03:12:48;;;;;;;0.50;0.50;;;;;;;4.53;93.03;96603.25;4986841;28;20149;-68
2023/12/25 03:15:14;;;;;;;0.45;0.45;;;;;;;4.80;93.16;96623.72;4985210;28;20138;-66
2023/12/25 03:17:41;;;;;;;0.50;0.50;;;;;;;4.98;92.55;96670.94;4986562;28;20536;-67
2023/12/25 03:20:09;;;;;;;0.50;0.50;;;;;;;4.72;91.98;96673.19;4987242;28;20344;-68
2023/12/25 03:22:35;;;;;;;0.45;0.45;;;;;;;4.50;89.98;96605.88;4986721;28;20082;-68
2023/12/25 03:25:02;;;;;;;0.43;0.43;;;;;;;4.65;88.72;96674.56;4987079;28;20081;-68
2023/12/25 03:27:29;;;;;;;0.40;0.40;;;;;;;3.83;89.22;96608.25;4986318;28;20493;-68
2023/12/25 03:29:56;;;;;;;0.40;0.40;;;;;;;4.14;89.59;96664.16;4986901;28;20058;-67
2023/12/25 03:32:23;;;;;;;0.40;0.40;;;;;;;3.89;88.78;96628.81;4986462;28;20050;-68
2023/12/25 03:34:50;;;;;;;0.40;0.40;;;;;;;3.93;88.40;96674.38;4986786;28;20068;-67
2023/12/25 03:37:17;;;;;;;0.40;0.40;;;;;;;3.56;89.57;96619.78;4986266;28;20417;-68
2023/12/25 03:39:43;;;;;;;0.40;0.40;;;;;;;3.71;90.18;96647.38;4985813;28;20404;-66
2023/12/25 03:42:10;;;;;;;0.40;0.40;;;;;;;4.14;90.06;96691.56;4986144;28;20046;-67
2023/12/25 03:44:37;;;;;;;0.40;0.40;;;;;;;4.10;90.54;96689.84;4986384;28;20054;-67
2023/12/25 03:47:04;;;;;;;0.40;0.40;;;;;;;3.95;91.17;96672.09;4985804;28;20054;-67
2023/12/25 03:49:31;;;;;;;0.40;0.40;;;;;;;3.49;91.20;96623.06;4986255;28;20512;-66
2023/12/25 03:51:58;;;;;;;0.50;0.50;;;;;;;3.44;91.31;96604.09;4986231;28;20373;-67
2023/12/25 03:54:24;;;;;;;0.40;0.40;;;;;;;4.13;91.92;96698.19;4986492;28;20053;-66
2023/12/25 03:56:51;;;;;;;0.50;0.50;;;;;;;3.90;91.64;96642.19;5000920;28;20699;-68
2023/12/25 03:59:18;;;;;;;0.40;0.40;;;;;;;3.91;92.37;96621.88;4986079;28;20509;-67
2023/12/25 04:01:45;;;;;;;0.50;0.50;;;;;;;4.26;92.99;96666.97;4985535;28;20046;-68
2023/12/25 04:04:12;;;;;;;0.43;0.43;;;;;;;4.25;93.23;96654.38;5000744;28;20124;-68
2023/12/25 04:06:39;;;;;;;0.40;0.40;;;;;;;4.37;93.81;96679.09;4985688;28;20603;-68
2023/12/25 04:09:06;;;;;;;0.40;0.40;;;;;;;4.51;93.57;96678.75;5000635;28;20113;-68
2023/12/25 04:11:32;;;;;;;0.40;0.40;;;;;;;4.15;93.58;96627.41;4984081;28;20436;-67
2023/12/25 04:13:59;;;;;;;0.40;0.40;;;;;;;4.36;93.03;96663.75;4985729;28;20054;-67
2023/12/25 04:16:27;;;;;;;0.50;0.50;;;;;;;4.57;92.63;96688.38;5000599;28;20589;-66
2023/12/25 04:18:55;;;;;;;0.40;0.40;;;;;;;4.57;91.93;96694.66;4985684;28;20073;-67
2023/12/25 04:21:32;;;;;;;0.50;0.50;;;;;;;4.63;91.14;96690.53;4985470;28;20062;-68
2023/12/25 04:24:00;;;;;;;0.40;0.40;;;;;;;4.54;91.45;96684.38;4985800;28;20054;-67
2023/12/25 04:26:27;;;;;;;0.50;0.50;;;;;;;4.60;91.39;96682.19;5000150;28;20058;-68
2023/12/25 04:28:54;;;;;;;0.40;0.40;;;;;;;4.65;90.58;96691.03;5000479;28;20530;-68
2023/12/25 04:31:22;;;;;;;0.40;0.40;;;;;;;4.58;89.92;96685.28;4985626;28;20085;-68
2023/12/25 04:33:48;;;;;;;0.40;0.40;;;;;;;3.80;91.27;96704.78;4985809;28;20445;-67
2023/12/25 04:36:15;;;;;;;0.40;0.40;;;;;;;3.77;92.94;96709.00;4975461;28;20054;-67
2023/12/25 04:38:42;;;;;;;0.40;0.40;;;;;;;3.90;93.34;96713.41;4980894;28;20441;-67
2023/12/25 04:41:09;;;;;;;0.47;0.47;;;;;;;3.97;92.54;96708.19;4980721;28;20058;-66
2023/12/25 04:43:36;;;;;;;0.40;0.40;;;;;;;3.73;92.41;96650.53;4965812;28;20051;-67
2023/12/25 04:46:03;;;;;;;0.40;0.40;;;;;;;4.02;94.36;96705.25;4965298;28;20130;-68
2023/12/25 04:48:30;;;;;;;0.40;0.40;;;;;;;4.18;94.22;96703.47;4965631;28;20055;-67
2023/12/25 04:50:59;;;;;;;0.40;0.40;;;;;;;4.13;95.96;96711.09;4965506;28;20090;-68
2023/12/25 04:53:26;;;;;;;0.40;0.40;;;;;;;4.21;95.71;96708.28;4965775;28;20861;-67
2023/12/25 04:55:53;;;;;;;0.40;0.40;;;;;;;3.77;95.41;96626.84;4965623;28;20144;-68
2023/12/25 04:58:20;;;;;;;0.50;0.50;;;;;;;3.45;95.11;96564.63;4965632;28;20066;-67
2023/12/25 05:00:47;;;;;;;0.40;0.40;;;;;;;4.28;95.46;96692.06;4965282;28;20050;-67
2023/12/25 05:03:13;;;;;;;0.50;0.50;;;;;;;4.24;96.08;96674.72;4964799;28;20065;-68
2023/12/25 05:05:40;;;;;;;0.40;0.40;;;;;;;4.40;96.88;96697.59;4965287;28;20054;-67
2023/12/25 05:08:07;;;;;;;0.40;0.40;;;;;;;4.50;96.63;96705.38;4965058;28;20596;-66
2023/12/25 05:10:34;;;;;;;0.50;0.50;;;;;;;4.26;96.37;96716.28;4965276;28;20066;-68
2023/12/25 05:13:01;;;;;;;0.47;0.47;;;;;;;3.34;95.69;96549.78;4964982;28;20145;-66
2023/12/25 05:15:28;;;;;;;0.40;0.40;;;;;;;3.73;94.56;96612.19;4965324;28;20481;-67
2023/12/25 05:17:55;;;;;;;0.40;0.40;;;;;;;4.34;94.45;96709.94;4964851;28;20730;-67
2023/12/25 05:20:22;;;;;;;0.40;0.40;;;;;;;3.76;96.51;96603.31;4979819;28;20145;-67
2023/12/25 05:22:49;;;;;;;0.40;0.40;;;;;;;4.48;97.34;96693.97;4965162;28;20548;-67
2023/12/25 05:25:16;;;;;;;0.40;0.40;;;;;;;4.63;97.79;96698.78;4965593;28;20066;-68
2023/12/25 05:27:42;;;;;;;0.50;0.50;;;;;;;4.74;96.67;96707.38;4974396;28;20070;-68
2023/12/25 05:30:10;;;;;;;0.40;0.40;;;;;;;4.60;95.83;96701.41;4984738;28;20521;-68
2023/12/25 05:32:38;;;;;;;0.50;0.50;;;;;;;4.80;95.26;96692.28;4983201;28;20078;-67
2023/12/25 05:35:05;;;;;;;0.40;0.40;;;;;;;4.45;94.97;96626.09;4984763;28;20450;-67
2023/12/25 05:37:32;;;;;;;0.40;0.40;;;;;;;4.59;93.55;96642.22;4984611;28;20124;-68
2023/12/25 05:40:00;;;;;;;0.40;0.40;;;;;;;4.24;93.63;96650.03;4983535;28;20050;-67
2023/12/25 05:42:27;;;;;;;0.40;0.40;;;;;;;4.72;93.17;96706.09;4984340;28;20679;-67
2023/12/25 05:44:53;;;;;;;0.50;0.50;;;;;;;4.10;92.92;96602.97;4984849;28;20062;-67
2023/12/25 05:47:20;;;;;;;0.40;0.40;;;;;;;4.59;93.09;96692.38;4999168;28;20058;-68
2023/12/25 05:49:47;;;;;;;0.50;0.50;;;;;;;2.63;93.69;96373.28;4985048;28;20128;-68
2023/12/25 05:52:14;;;;;;;0.40;0.40;;;;;;;4.50;92.03;96645.03;4984309;28;20050;-67
2023/12/25 05:54:42;;;;;;;0.45;0.45;;;;;;;4.49;93.37;96596.84;4984210;28;20545;-68
2023/12/25 05:57:09;;;;;;;0.50;0.50;;;;;;;4.51;94.00;96589.06;4983632;28;20121;-67
2023/12/25 05:59:37;;;;;;;0.43;0.43;;;;;;;4.86;96.11;96652.50;4983586;28;20543;-68
2023/12/25 06:02:05;;;;;;;0.40;0.40;;;;;;;4.98;96.20;96657.22;4983300;28;20151;-68
2023/12/25 06:04:32;;;;;;;0.47;0.47;;;;;;;5.13;95.15;96670.22;4985870;28;20089;-67
2023/12/25 06:06:58;;;;;;;0.40;0.40;;;;;;;5.01;94.66;96676.50;4969254;28;20105;-68
2023/12/25 06:09:26;;;;;;;0.40;0.40;;;;;;;4.45;94.70;96626.09;4987066;28;20456;-67
2023/12/25 06:11:53;;;;;;;0.40;0.40;;;;;;;3.38;91.51;96832.66;4987506;28;20062;-67
2023/12/25 06:14:19;;;;;;;0.40;0.40;;;;;;;4.55;91.60;96696.94;4988096;28;20133;-68
2023/12/25 06:16:46;;;;;;;0.40;0.40;;;;;;;4.36;92.82;96710.38;4987637;28;20061;-68
2023/12/25 06:19:13;;;;;;;0.40;0.40;;;;;;;4.17;91.66;96668.97;4988039;28;20097;-68
2023/12/25 06:21:40;;;;;;;0.40;0.40;;;;;;;4.59;91.10;96697.88;4987958;28;20130;-68
2023/12/25 06:24:07;;;;;;;0.50;0.50;;;;;;;4.71;91.23;96699.03;5002856;28;20417;-67
2023/12/25 06:26:34;;;;;;;0.50;0.50;;;;;;;4.45;91.11;96631.59;5002490;28;20460;-67
2023/12/25 06:29:01;;;;;;;0.40;0.40;;;;;;;5.01;91.58;96714.94;4985936;28;20141;-68
2023/12/25 06:31:27;;;;;;;0.40;0.40;;;;;;;4.73;91.22;96669.31;4987452;28;20055;-67
2023/12/25 06:33:54;;;;;;;0.50;0.50;;;;;;;5.26;90.63;96704.75;4987722;28;20058;-66
2023/12/25 06:36:21;;;;;;;0.50;0.50;;;;;;;5.46;89.82;96714.81;4987353;28;20058;-67
2023/12/25 06:38:48;;;;;;;0.50;0.50;;;;;;;5.02;90.44;96656.16;4987489;28;20141;-67
2023/12/25 06:41:15;;;;;;;0.50;0.50;;;;;;;5.54;90.67;96716.63;4987208;28;20054;-67
2023/12/25 06:43:42;;;;;;;0.50;0.50;;;;;;;5.72;89.68;96728.97;5002153;28;20052;-67
2023/12/25 06:46:08;;;;;;;0.50;0.50;;;;;;;4.95;86.54;96666.13;4987451;28;20054;-67
2023/12/25 06:48:35;;;;;;;0.43;0.43;;;;;;;5.45;86.53;96729.69;4987429;28;20112;-67
2023/12/25 06:51:02;;;;;;;0.50;0.50;;;;;;;4.63;86.34;96578.09;4986567;28;20058;-66
2023/12/25 06:53:29;;;;;;;0.50;0.50;;;;;;;4.42;87.26;96606.78;4985451;28;20061;-66
2023/12/25 06:55:56;;;;;;;0.50;0.50;;;;;;;5.46;88.88;96747.75;4987121;28;20155;-68
2023/12/25 06:58:23;;;;;;;0.50;0.50;;;;;;;5.74;87.70;96749.44;4986987;28;20551;-68
2023/12/25 07:00:49;;;;;;;0.50;0.50;;;;;;;5.97;87.13;96747.81;4986807;28;20949;-66
2023/12/25 07:03:16;;;;;;;0.50;0.50;;;;;;;6.14;86.98;96752.25;4987303;28;20050;-69
2023/12/25 07:05:43;;;;;;;0.50;0.50;;;;;;;6.34;87.27;96745.75;4987023;28;20452;-67
2023/12/25 07:08:10;;;;;;;0.60;0.60;;;;;;;6.08;85.99;96660.16;4986665;28;20082;-68
2023/12/25 07:10:38;;;;;;;0.60;0.60;;;;;;;6.97;84.96;96746.69;5001635;28;20688;-68
2023/12/25 07:13:05;;;;;;;0.60;0.60;;;;;;;7.15;84.05;96736.91;5000847;28;20132;-68
2023/12/25 07:15:34;;;;;;;0.60;0.60;;;;;;;7.28;83.45;96725.44;4967950;28;20573;-66
2023/12/25 07:18:01;;;;;;;0.50;0.50;;;;;;;7.18;83.26;96681.91;4966842;28;20433;-67
2023/12/25 07:20:28;;;;;;;0.60;0.60;;;;;;;7.87;82.55;96735.47;4967167;28;20061;-67
2023/12/25 07:22:55;;;;;;;0.63;0.63;;;;;;;7.52;80.94;96659.06;4967173;28;20070;-67
2023/12/25 07:25:21;;;;;;;0.63;0.63;;;;;;;8.29;80.60;96725.34;4967735;28;20077;-68
2023/12/25 07:27:48;;;;;;;0.60;0.60;;;;;;;8.52;79.77;96701.41;4989913;28;20054;-67
2023/12/25 07:30:15;;;;;;;0.70;0.70;;;;;;;8.92;76.50;96715.53;4986430;28;20054;-67
2023/12/25 07:32:42;;;;;;;0.70;0.70;;;;;;;8.99;76.16;96721.22;4986577;28;20050;-67
2023/12/25 07:35:09;;;;;;;0.70;0.70;;;;;;;9.29;75.73;96741.47;5001320;28;20952;-67
2023/12/25 07:37:35;;;;;;;0.75;0.75;;;;;;;9.21;74.00;96678.97;4986105;28;20057;-68
2023/12/25 07:40:03;;;;;;;0.80;0.80;;;;;;;9.82;72.06;96732.03;4986711;28;20065;-68
2023/12/25 07:42:30;;;;;;;0.77;0.77;;;;;;;10.22;71.51;96734.22;5000944;28;20148;-67
2023/12/25 07:44:56;;;;;;;0.90;0.90;;;;;;;10.57;69.64;96735.44;5001087;28;20061;-67
2023/12/25 07:47:23;;;;;;;0.80;0.80;;;;;;;9.77;69.96;96656.91;4985686;28;20058;-68
2023/12/25 07:49:52;;;;;;;0.80;0.80;;;;;;;10.38;72.66;96721.78;4984480;28;20054;-68
2023/12/25 07:52:18;;;;;;;0.90;0.90;;;;;;;10.77;71.71;96732.50;4985539;28;20057;-67
2023/12/25 07:54:45;;;;;;;0.90;0.90;;;;;;;10.76;71.26;96670.78;4986491;28;20051;-69
2023/12/25 07:57:12;;;;;;;0.90;0.90;;;;;;;10.86;71.09;96663.75;4985841;28;20050;-68
2023/12/25 07:59:39;;;;;;;0.90;0.90;;;;;;;11.44;70.23;96722.88;4986315;28;20058;-68
2023/12/25 08:02:06;;;;;;;1.10;1.10;;;;;;;11.55;70.68;96707.94;4985734;28;20223;-68
2023/12/25 08:04:32;;;;;;;0.90;0.90;;;;;;;11.31;71.62;96685.53;4985754;28;20072;-68
2023/12/25 08:06:59;;;;;;;0.90;0.90;;;;;;;11.79;71.36;96728.75;4985531;28;20064;-68
2023/12/25 08:09:26;;;;;;;1.00;1.00;;;;;;;11.91;70.40;96720.09;4985704;28;20061;-70
2023/12/25 08:11:52;;;;;;;1.00;1.00;;;;;;;11.68;70.61;96747.28;4985641;28;20057;-68
2023/12/25 08:14:19;;;;;;;0.90;0.90;;;;;;;10.78;74.62;96703.63;4985879;28;20544;-68
2023/12/25 08:16:46;;;;;;;0.93;0.93;;;;;;;11.03;73.34;96685.28;4985854;28;20081;-68
2023/12/25 08:19:13;;;;;;;1.00;1.00;;;;;;;11.46;72.18;96698.34;4985104;28;20058;-68
2023/12/25 08:21:40;;;;;;;0.95;0.95;;;;;;;11.86;70.51;96726.00;4999904;28;20053;-68
2023/12/25 08:24:07;;;;;;;1.00;1.00;;;;;;;12.30;69.63;96754.44;4985298;28;20054;-67
2023/12/25 08:26:35;;;;;;;1.13;1.13;;;;;;;12.56;67.28;96745.84;4984513;28;20065;-69
2023/12/25 08:29:02;;;;;;;1.10;1.10;;;;;;;12.27;67.11;96671.91;4985378;28;20109;-69
2023/12/25 08:31:28;;;;;;;1.10;1.10;;;;;;;12.72;65.38;96712.97;4984597;28;20056;-68
2023/12/25 08:33:55;;;;;;;1.10;1.10;;;;;;;12.47;63.99;96639.03;4985720;28;20050;-69
2023/12/25 08:36:22;;;;;;;1.10;1.10;;;;;;;13.31;63.87;96731.78;4983655;28;20061;-69
2023/12/25 08:38:49;;;;;;;1.02;1.02;;;;;;;13.42;63.36;96732.59;4984325;28;20141;-68
2023/12/25 08:41:16;;;;;;;1.20;1.20;;;;;;;13.18;61.30;96683.28;4984371;28;20058;-71
2023/12/25 08:43:43;;;;;;;1.02;1.02;;;;;;;13.51;60.76;96735.75;4985098;28;20058;-67
2023/12/25 08:46:16;;;;;;;1.13;1.13;;;;;;;13.00;58.45;96693.59;4984574;28;20436;-70
2023/12/25 08:48:43;;;;;;;1.10;1.10;;;;;;;12.64;57.62;96691.09;4984774;28;20361;-68
2023/12/25 08:51:10;;;;;;;1.00;1.00;;;;;;;13.14;58.05;96732.56;4984414;28;20050;-68
2023/12/25 08:53:37;;;;;;;1.10;1.10;;;;;;;13.00;57.15;96688.03;4984084;28;20054;-70
2023/12/25 08:56:05;;;;;;;1.00;1.00;;;;;;;13.02;57.40;96652.31;4983228;28;20054;-69
2023/12/25 08:58:32;;;;;;;1.10;1.10;;;;;;;13.78;56.08;96727.03;4983525;28;20209;-68
2023/12/25 09:00:58;;;;;;;1.30;1.30;;;;;;;14.05;55.44;96733.78;4983491;28;20486;-72
2023/12/25 09:03:25;;;;;;;1.20;1.20;;;;;;;14.01;54.89;96691.19;4983749;28;20058;-68
2023/12/25 09:05:52;;;;;;;1.20;1.20;;;;;;;14.56;54.18;96717.31;4981580;28;20132;-68
2023/12/25 09:08:21;;;;;;;1.38;1.38;;;;;;;14.75;52.60;96719.63;4982342;28;20063;-68
2023/12/25 09:10:48;;;;;;;1.30;1.30;;;;;;;15.00;52.80;96717.53;4982492;28;20494;-69
2023/12/25 09:13:16;;;;;;;1.48;1.48;;;;;;;15.25;51.88;96704.22;4997742;28;20054;-69
2023/12/25 09:15:43;;;;;;;1.40;1.40;;;;;;;13.91;50.87;96494.34;4998428;28;20484;-67
2023/12/25 09:18:09;;;;;;;1.38;1.38;;;;;;;15.25;50.62;96698.66;4981842;28;20570;-67
2023/12/25 09:20:37;;;;;;;1.40;1.40;;;;;;;14.73;50.86;96557.56;4983556;28;20054;-68
2023/12/25 09:23:04;;;;;;;1.70;1.70;;;;;;;15.87;49.94;96690.97;4983145;28;20066;-67
2023/12/25 09:25:31;;;;;;;1.35;1.35;;;;;;;15.73;50.25;96629.69;4982426;28;20077;-69
2023/12/25 09:27:58;;;;;;;1.70;1.70;;;;;;;16.24;49.94;96691.03;4983481;28;20060;-70
2023/12/25 09:30:24;;;;;;;1.60;1.60;;;;;;;16.16;47.81;96685.91;4983693;28;20308;-68
2023/12/25 09:32:51;;;;;;;1.60;1.60;;;;;;;14.87;47.57;96423.59;4998431;28;20050;-69
2023/12/25 09:35:18;;;;;;;1.42;1.42;;;;;;;16.54;47.67;96667.94;4982964;28;20046;-69
2023/12/25 09:37:45;;;;;;;1.73;1.73;;;;;;;16.73;47.37;96666.50;5001229;28;20062;-68
2023/12/25 09:40:12;;;;;;;1.70;1.70;;;;;;;16.70;46.74;96664.53;4986064;28;20046;-68
2023/12/25 09:42:39;;;;;;;1.60;1.60;;;;;;;16.22;45.26;96668.28;4987499;28;20481;-71
2023/12/25 09:45:09;;;;;;;1.50;1.50;;;;;;;15.93;44.80;96660.63;4988033;28;20047;-68
2023/12/25 09:47:37;;;;;;;1.60;1.60;;;;;;;16.49;45.55;96660.81;4987468;28;20520;-69
2023/12/25 09:50:05;;;;;;;1.70;1.70;;;;;;;16.78;45.00;96649.25;4987857;28;20148;-68
2023/12/25 09:52:32;;;;;;;1.73;1.73;;;;;;;16.98;44.89;96664.16;5002712;28;20153;-68
2023/12/25 09:54:59;;;;;;;1.60;1.60;;;;;;;17.13;44.24;96637.56;4977810;28;20468;-68
2023/12/25 09:57:29;;;;;;;1.70;1.70;;;;;;;17.33;43.32;96653.22;4967889;28;20214;-68
2023/12/25 09:59:57;;;;;;;2.00;2.00;;;;;;;17.42;42.43;96655.50;4983189;28;20062;-67
2023/12/25 10:02:27;;;;;;;1.90;1.90;;;;;;;17.29;42.05;96590.13;4968351;28;20474;-69
2023/12/25 10:04:55;;;;;;;1.63;1.63;;;;;;;17.93;42.13;96641.03;4967007;28;20051;-69
2023/12/25 10:07:22;;;;;;;2.00;2.00;;;;;;;18.16;41.23;96646.63;4968406;28;20165;-69
2023/12/25 10:09:53;;;;;;;2.03;2.03;;;;;;;18.36;41.04;96632.59;4966792;28;20105;-68
2023/12/25 10:12:20;;;;;;;1.80;1.80;;;;;;;18.38;40.79;96628.19;4966568;28;20051;-69
2023/12/25 10:14:49;;;;;;;1.92;1.92;;;;;;;18.32;39.54;96587.03;4968725;28;20050;-69
2023/12/25 10:17:18;;;;;;;1.80;1.80;;;;;;;18.70;39.40;96633.13;4982246;28;20564;-68
2023/12/25 10:19:55;;;;;;;1.90;1.90;;;;;;;18.71;39.52;96615.88;4967069;28;20058;-68
2023/12/25 10:22:32;;;;;;;2.10;2.10;;;;;;;18.84;39.11;96622.38;4968247;28;20065;-68
2023/12/25 10:25:10;;;;;;;2.00;2.00;;;;;;;18.58;39.37;96553.22;4968793;28;20112;-68
2023/12/25 10:27:39;;;;;;;1.88;1.88;;;;;;;18.58;39.21;96539.19;4984795;28;20509;-68
2023/12/25 10:30:17;;;;;;;1.92;1.92;;;;;;;19.22;38.84;96620.69;4987735;28;20505;-69
2023/12/25 10:32:45;;;;;;;2.03;2.03;;;;;;;19.25;38.13;96607.81;4985924;28;20137;-68
2023/12/25 10:35:19;;;;;;;1.98;1.98;;;;;;;19.26;38.14;96613.00;4987335;28;20144;-69
2023/12/25 10:37:46;;;;;;;1.90;1.90;;;;;;;19.07;38.04;96574.53;4987434;28;20054;-70
2023/12/25 10:40:26;;;;;;;1.88;1.88;;;;;;;19.24;37.42;96601.41;4987781;28;20137;-69
2023/12/25 10:42:54;;;;;;;1.80;1.80;;;;;;;19.28;37.69;96593.69;4987076;28;20492;-67
2023/12/25 10:45:23;;;;;;;1.80;1.80;;;;;;;19.24;37.06;96600.59;4987694;28;20137;-69
2023/12/25 10:47:53;;;;;;;1.90;1.90;;;;;;;19.21;37.30;96588.25;4985412;28;20053;-69
2023/12/25 10:50:24;;;;;;;1.90;1.90;;;;;;;19.24;37.41;96590.16;4987488;28;20109;-70
2023/12/25 10:53:06;;;;;;;2.35;2.33;;;;;;;19.02;37.48;96535.75;4987129;28;20105;-69
2023/12/25 10:55:44;;;;;;;1.80;1.80;;;;;;;19.50;36.93;96580.72;4986146;28;20472;-69
2023/12/25 10:58:12;;;;;;;2.00;2.00;;;;;;;19.50;36.66;96575.13;4986671;28;20145;-69
2023/12/25 11:00:56;;;;;;;1.98;1.98;;;;;;;19.67;36.65;96586.31;4986719;28;20053;-69
2023/12/25 11:03:24;;;;;;;1.85;1.85;;;;;;;19.75;36.64;96568.03;4986153;28;20138;-68
2023/12/25 11:05:51;;;;;;;1.70;1.70;;;;;;;19.30;37.32;96478.91;4987031;28;20394;-69
2023/12/25 11:08:18;;;;;;;1.80;1.80;;;;;;;19.51;36.53;96509.25;4986484;28;20054;-66
2023/12/25 11:11:01;;;;;;;1.70;1.70;;;;;;;20.05;36.06;96582.47;4985538;28;20050;-68
2023/12/25 11:13:30;;;;;;;2.20;2.20;;;;;;;19.76;36.14;96507.81;4987089;28;20633;-69
2023/12/25 11:15:57;;;;;;;1.98;1.98;;;;;;;20.23;36.75;96579.22;4986446;28;20475;-68
2023/12/25 11:18:24;;;;;;;1.77;1.77;;;;;;;20.32;36.06;96563.25;4986466;28;20455;-67
2023/12/25 11:21:04;;;;;;;2.10;2.10;;;;;;;20.38;36.23;96566.31;4986686;28;20050;-68
2023/12/25 11:23:41;;;;;;;2.13;2.13;;;;;;;20.45;35.20;96571.75;4986800;28;20057;-69
2023/12/25 11:26:10;;;;;;;2.22;2.22;;;;;;;20.40;35.34;96586.34;4986394;28;20058;-68
2023/12/25 11:28:43;;;;;;;2.00;2.00;;;;;;;20.18;35.38;96580.53;4986427;28;20050;-69
2023/12/25 11:31:13;;;;;;;2.15;2.15;;;;;;;20.11;35.65;96591.16;4986120;28;20060;-70
2023/12/25 11:33:46;;;;;;;2.00;2.00;;;;;;;19.98;35.87;96593.13;4986627;28;20085;-68
2023/12/25 11:36:16;;;;;;;2.20;2.20;;;;;;;19.93;36.34;96583.22;4986229;28;20128;-69
2023/12/25 11:38:56;;;;;;;1.90;1.90;;;;;;;19.89;36.34;96588.13;4986279;28;20050;-69
2023/12/25 11:41:23;;;;;;;2.17;2.17;;;;;;;19.83;36.76;96583.50;4986537;28;20058;-69